sensor_id;sensor_type;location;lat;lon;timestamp;P1;durP1;ratioP1;P2;durP2;ratioP2
27822;SDS011;29019;47.630;8.262;2023-06-26T00:01:28;14.55;;;5.88;;
27822;SDS011;29019;47.630;8.262;2023-06-26T00:05:31;11.75;;;6.18;;
27822;SDS011;29019;47.630;8.262;2023-06-26T00:13:33;12.13;;;5.40;;
27822;SDS011;29019;47.630;8.262;2023-06-26T00:17:34;13.10;;;6.20;;
27822;SDS011;29019;47.630;8.262;2023-06-26T00:21:37;13.85;;;6.03;;
27822;SDS011;29019;47.630;8.262;2023-06-26T00:25:37;10.93;;;5.20;;
27822;SDS011;29019;47.630;8.262;2023-06-26T00:29:38;10.60;;;5.15;;
27822;SDS011;29019;47.630;8.262;2023-06-26T00:33:39;10.38;;;4.88;;
27822;SDS011;29019;47.630;8.262;2023-06-26T00:37:39;11.40;;;4.88;;
27822;SDS011;29019;47.630;8.262;2023-06-26T00:41:40;12.65;;;6.03;;
27822;SDS011;29019;47.630;8.262;2023-06-26T00:45:41;11.32;;;5.63;;
27822;SDS011;29019;47.630;8.262;2023-06-26T00:49:41;11.00;;;5.15;;
27822;SDS011;29019;47.630;8.262;2023-06-26T00:53:42;8.40;;;4.50;;
27822;SDS011;29019;47.630;8.262;2023-06-26T00:57:43;11.05;;;5.03;;
27822;SDS011;29019;47.630;8.262;2023-06-26T01:01:45;12.02;;;5.05;;
27822;SDS011;29019;47.630;8.262;2023-06-26T01:05:46;11.52;;;5.00;;
27822;SDS011;29019;47.630;8.262;2023-06-26T01:09:49;9.88;;;4.70;;
27822;SDS011;29019;47.630;8.262;2023-06-26T01:13:50;10.13;;;5.35;;
27822;SDS011;29019;47.630;8.262;2023-06-26T01:17:51;10.68;;;4.65;;
27822;SDS011;29019;47.630;8.262;2023-06-26T01:21:55;12.18;;;5.07;;
27822;SDS011;29019;47.630;8.262;2023-06-26T01:26:11;9.63;;;4.40;;
27822;SDS011;29019;47.630;8.262;2023-06-26T01:30:22;10.70;;;5.07;;
27822;SDS011;29019;47.630;8.262;2023-06-26T01:34:24;8.60;;;4.45;;
27822;SDS011;29019;47.630;8.262;2023-06-26T01:38:25;10.30;;;4.90;;
27822;SDS011;29019;47.630;8.262;2023-06-26T01:42:26;7.63;;;4.10;;
27822;SDS011;29019;47.630;8.262;2023-06-26T01:46:36;9.40;;;4.55;;
27822;SDS011;29019;47.630;8.262;2023-06-26T01:51:05;9.25;;;5.50;;
27822;SDS011;29019;47.630;8.262;2023-06-26T01:55:18;10.10;;;4.68;;
27822;SDS011;29019;47.630;8.262;2023-06-26T01:59:20;7.72;;;3.80;;
27822;SDS011;29019;47.630;8.262;2023-06-26T02:03:22;8.85;;;4.03;;
27822;SDS011;29019;47.630;8.262;2023-06-26T02:07:24;11.02;;;4.40;;
27822;SDS011;29019;47.630;8.262;2023-06-26T02:11:24;8.82;;;3.90;;
27822;SDS011;29019;47.630;8.262;2023-06-26T02:15:25;9.73;;;4.25;;
27822;SDS011;29019;47.630;8.262;2023-06-26T02:19:26;8.10;;;4.80;;
27822;SDS011;29019;47.630;8.262;2023-06-26T02:23:27;6.65;;;3.78;;
27822;SDS011;29019;47.630;8.262;2023-06-26T02:27:28;8.13;;;4.50;;
27822;SDS011;29019;47.630;8.262;2023-06-26T02:31:28;6.35;;;3.15;;
27822;SDS011;29019;47.630;8.262;2023-06-26T02:35:29;9.77;;;4.88;;
27822;SDS011;29019;47.630;8.262;2023-06-26T02:39:30;6.53;;;3.70;;
27822;SDS011;29019;47.630;8.262;2023-06-26T02:43:30;7.13;;;3.70;;
27822;SDS011;29019;47.630;8.262;2023-06-26T02:47:31;6.97;;;3.85;;
27822;SDS011;29019;47.630;8.262;2023-06-26T02:51:32;6.35;;;3.33;;
27822;SDS011;29019;47.630;8.262;2023-06-26T02:55:34;6.45;;;3.63;;
27822;SDS011;29019;47.630;8.262;2023-06-26T03:03:35;7.53;;;3.50;;
27822;SDS011;29019;47.630;8.262;2023-06-26T03:07:40;6.03;;;3.47;;
27822;SDS011;29019;47.630;8.262;2023-06-26T03:11:41;6.03;;;3.35;;
27822;SDS011;29019;47.630;8.262;2023-06-26T03:15:41;6.75;;;3.53;;
27822;SDS011;29019;47.630;8.262;2023-06-26T03:19:42;6.20;;;3.22;;
27822;SDS011;29019;47.630;8.262;2023-06-26T03:23:42;4.80;;;2.85;;
27822;SDS011;29019;47.630;8.262;2023-06-26T03:27:43;5.57;;;2.97;;
27822;SDS011;29019;47.630;8.262;2023-06-26T03:31:44;4.65;;;3.15;;
27822;SDS011;29019;47.630;8.262;2023-06-26T03:35:44;7.15;;;3.35;;
27822;SDS011;29019;47.630;8.262;2023-06-26T03:39:45;6.25;;;3.20;;
27822;SDS011;29019;47.630;8.262;2023-06-26T03:43:46;6.10;;;3.28;;
27822;SDS011;29019;47.630;8.262;2023-06-26T03:47:46;4.47;;;2.60;;
27822;SDS011;29019;47.630;8.262;2023-06-26T03:51:48;5.07;;;3.42;;
27822;SDS011;29019;47.630;8.262;2023-06-26T03:55:49;4.95;;;2.95;;
27822;SDS011;29019;47.630;8.262;2023-06-26T03:59:50;6.68;;;3.17;;
27822;SDS011;29019;47.630;8.262;2023-06-26T04:03:51;4.80;;;3.00;;
27822;SDS011;29019;47.630;8.262;2023-06-26T04:07:52;5.72;;;3.22;;
27822;SDS011;29019;47.630;8.262;2023-06-26T04:11:54;5.40;;;2.60;;
27822;SDS011;29019;47.630;8.262;2023-06-26T04:15:54;5.63;;;3.58;;
27822;SDS011;29019;47.630;8.262;2023-06-26T04:19:55;6.38;;;3.08;;
27822;SDS011;29019;47.630;8.262;2023-06-26T04:23:56;4.75;;;2.75;;
27822;SDS011;29019;47.630;8.262;2023-06-26T04:27:56;4.68;;;2.65;;
27822;SDS011;29019;47.630;8.262;2023-06-26T04:31:57;6.22;;;2.80;;
27822;SDS011;29019;47.630;8.262;2023-06-26T04:35:58;4.15;;;2.72;;
27822;SDS011;29019;47.630;8.262;2023-06-26T04:39:59;5.45;;;3.40;;
27822;SDS011;29019;47.630;8.262;2023-06-26T04:44:00;6.10;;;3.35;;
27822;SDS011;29019;47.630;8.262;2023-06-26T04:48:01;5.07;;;2.95;;
27822;SDS011;29019;47.630;8.262;2023-06-26T04:52:02;5.97;;;2.95;;
27822;SDS011;29019;47.630;8.262;2023-06-26T04:56:03;5.15;;;2.60;;
27822;SDS011;29019;47.630;8.262;2023-06-26T05:00:04;4.13;;;2.50;;
27822;SDS011;29019;47.630;8.262;2023-06-26T05:04:10;4.70;;;2.70;;
27822;SDS011;29019;47.630;8.262;2023-06-26T05:12:18;5.07;;;2.67;;
27822;SDS011;29019;47.630;8.262;2023-06-26T05:16:19;4.45;;;2.65;;
27822;SDS011;29019;47.630;8.262;2023-06-26T05:20:20;4.30;;;2.83;;
27822;SDS011;29019;47.630;8.262;2023-06-26T05:24:20;4.03;;;2.42;;
27822;SDS011;29019;47.630;8.262;2023-06-26T05:28:26;4.85;;;2.85;;
27822;SDS011;29019;47.630;8.262;2023-06-26T05:32:27;4.07;;;2.85;;
27822;SDS011;29019;47.630;8.262;2023-06-26T05:36:31;4.57;;;2.78;;
27822;SDS011;29019;47.630;8.262;2023-06-26T05:40:33;4.30;;;2.65;;
27822;SDS011;29019;47.630;8.262;2023-06-26T05:44:34;4.85;;;2.75;;
27822;SDS011;29019;47.630;8.262;2023-06-26T05:48:35;5.35;;;3.00;;
27822;SDS011;29019;47.630;8.262;2023-06-26T05:52:36;4.55;;;2.42;;
27822;SDS011;29019;47.630;8.262;2023-06-26T05:56:38;6.15;;;2.58;;
27822;SDS011;29019;47.630;8.262;2023-06-26T06:00:41;4.00;;;2.70;;
27822;SDS011;29019;47.630;8.262;2023-06-26T06:04:41;2.95;;;2.28;;
27822;SDS011;29019;47.630;8.262;2023-06-26T06:08:42;4.22;;;2.40;;
27822;SDS011;29019;47.630;8.262;2023-06-26T06:12:43;3.33;;;2.20;;
27822;SDS011;29019;47.630;8.262;2023-06-26T06:16:43;3.92;;;2.67;;
27822;SDS011;29019;47.630;8.262;2023-06-26T06:20:44;4.05;;;2.50;;
27822;SDS011;29019;47.630;8.262;2023-06-26T06:24:45;3.95;;;2.10;;
27822;SDS011;29019;47.630;8.262;2023-06-26T06:28:45;4.78;;;3.00;;
27822;SDS011;29019;47.630;8.262;2023-06-26T06:32:46;2.92;;;2.28;;
27822;SDS011;29019;47.630;8.262;2023-06-26T06:36:50;3.13;;;1.88;;
27822;SDS011;29019;47.630;8.262;2023-06-26T06:40:50;4.13;;;2.55;;
27822;SDS011;29019;47.630;8.262;2023-06-26T06:44:51;3.45;;;1.98;;
27822;SDS011;29019;47.630;8.262;2023-06-26T06:48:52;4.93;;;2.40;;
27822;SDS011;29019;47.630;8.262;2023-06-26T06:52:53;3.65;;;2.20;;
27822;SDS011;29019;47.630;8.262;2023-06-26T06:56:53;3.20;;;2.15;;
27822;SDS011;29019;47.630;8.262;2023-06-26T07:00:54;3.72;;;2.20;;
27822;SDS011;29019;47.630;8.262;2023-06-26T07:04:55;3.38;;;2.20;;
27822;SDS011;29019;47.630;8.262;2023-06-26T07:08:56;3.42;;;2.45;;
27822;SDS011;29019;47.630;8.262;2023-06-26T07:12:57;3.70;;;2.30;;
27822;SDS011;29019;47.630;8.262;2023-06-26T07:16:57;3.00;;;2.40;;
27822;SDS011;29019;47.630;8.262;2023-06-26T07:20:58;4.18;;;2.08;;
27822;SDS011;29019;47.630;8.262;2023-06-26T07:24:58;3.30;;;1.85;;
27822;SDS011;29019;47.630;8.262;2023-06-26T07:28:59;2.88;;;2.03;;
27822;SDS011;29019;47.630;8.262;2023-06-26T07:33:00;2.90;;;2.05;;
27822;SDS011;29019;47.630;8.262;2023-06-26T07:37:00;3.15;;;2.03;;
27822;SDS011;29019;47.630;8.262;2023-06-26T07:41:01;2.60;;;2.00;;
27822;SDS011;29019;47.630;8.262;2023-06-26T07:45:02;3.20;;;1.88;;
27822;SDS011;29019;47.630;8.262;2023-06-26T07:49:11;3.95;;;2.13;;
27822;SDS011;29019;47.630;8.262;2023-06-26T07:53:11;3.83;;;2.30;;
27822;SDS011;29019;47.630;8.262;2023-06-26T07:57:12;3.90;;;2.58;;
27822;SDS011;29019;47.630;8.262;2023-06-26T08:01:13;2.50;;;1.95;;
27822;SDS011;29019;47.630;8.262;2023-06-26T08:05:14;3.67;;;2.63;;
27822;SDS011;29019;47.630;8.262;2023-06-26T08:09:14;2.88;;;1.90;;
27822;SDS011;29019;47.630;8.262;2023-06-26T08:17:16;3.03;;;2.10;;
27822;SDS011;29019;47.630;8.262;2023-06-26T08:21:17;3.25;;;2.10;;
27822;SDS011;29019;47.630;8.262;2023-06-26T08:25:17;4.32;;;1.95;;
27822;SDS011;29019;47.630;8.262;2023-06-26T08:29:18;2.55;;;1.80;;
27822;SDS011;29019;47.630;8.262;2023-06-26T08:33:19;2.60;;;1.95;;
27822;SDS011;29019;47.630;8.262;2023-06-26T08:37:19;3.58;;;2.00;;
27822;SDS011;29019;47.630;8.262;2023-06-26T08:41:20;3.05;;;2.50;;
27822;SDS011;29019;47.630;8.262;2023-06-26T08:45:21;2.65;;;1.90;;
27822;SDS011;29019;47.630;8.262;2023-06-26T08:49:25;3.65;;;2.13;;
27822;SDS011;29019;47.630;8.262;2023-06-26T08:57:53;2.90;;;1.80;;
27822;SDS011;29019;47.630;8.262;2023-06-26T09:01:54;1.73;;;1.63;;
27822;SDS011;29019;47.630;8.262;2023-06-26T09:05:54;2.30;;;1.92;;
27822;SDS011;29019;47.630;8.262;2023-06-26T09:09:55;2.75;;;1.92;;
27822;SDS011;29019;47.630;8.262;2023-06-26T09:13:56;3.55;;;1.90;;
27822;SDS011;29019;47.630;8.262;2023-06-26T09:17:57;2.38;;;1.92;;
27822;SDS011;29019;47.630;8.262;2023-06-26T09:21:58;2.80;;;1.92;;
27822;SDS011;29019;47.630;8.262;2023-06-26T09:30:02;3.42;;;2.00;;
27822;SDS011;29019;47.630;8.262;2023-06-26T09:34:03;2.55;;;1.83;;
27822;SDS011;29019;47.630;8.262;2023-06-26T09:42:05;2.17;;;1.67;;
27822;SDS011;29019;47.630;8.262;2023-06-26T09:46:07;2.47;;;1.85;;
27822;SDS011;29019;47.630;8.262;2023-06-26T09:50:20;2.10;;;1.90;;
27822;SDS011;29019;47.630;8.262;2023-06-26T09:54:22;2.05;;;1.70;;
27822;SDS011;29019;47.630;8.262;2023-06-26T09:58:24;2.00;;;1.80;;
27822;SDS011;29019;47.630;8.262;2023-06-26T10:02:25;2.50;;;1.60;;
27822;SDS011;29019;47.630;8.262;2023-06-26T10:11:04;1.95;;;1.63;;
27822;SDS011;29019;47.630;8.262;2023-06-26T10:15:06;2.40;;;1.60;;
27822;SDS011;29019;47.630;8.262;2023-06-26T10:19:12;1.90;;;1.60;;
27822;SDS011;29019;47.630;8.262;2023-06-26T10:23:14;1.92;;;1.60;;
27822;SDS011;29019;47.630;8.262;2023-06-26T10:27:21;2.10;;;1.63;;
27822;SDS011;29019;47.630;8.262;2023-06-26T10:31:25;2.78;;;1.67;;
27822;SDS011;29019;47.630;8.262;2023-06-26T10:35:27;1.75;;;1.48;;
27822;SDS011;29019;47.630;8.262;2023-06-26T10:39:49;1.90;;;1.60;;
27822;SDS011;29019;47.630;8.262;2023-06-26T10:44:06;2.33;;;1.57;;
27822;SDS011;29019;47.630;8.262;2023-06-26T10:48:08;3.40;;;1.75;;
27822;SDS011;29019;47.630;8.262;2023-06-26T10:52:09;2.60;;;1.65;;
27822;SDS011;29019;47.630;8.262;2023-06-26T10:56:10;2.10;;;1.50;;
27822;SDS011;29019;47.630;8.262;2023-06-26T11:00:11;2.53;;;1.65;;
27822;SDS011;29019;47.630;8.262;2023-06-26T11:04:14;2.80;;;1.90;;
27822;SDS011;29019;47.630;8.262;2023-06-26T11:08:16;1.77;;;1.60;;
27822;SDS011;29019;47.630;8.262;2023-06-26T11:16:39;1.98;;;1.38;;
27822;SDS011;29019;47.630;8.262;2023-06-26T11:20:42;1.55;;;1.35;;
27822;SDS011;29019;47.630;8.262;2023-06-26T11:24:43;1.98;;;1.50;;
27822;SDS011;29019;47.630;8.262;2023-06-26T11:32:49;2.40;;;1.50;;
27822;SDS011;29019;47.630;8.262;2023-06-26T11:36:50;2.78;;;1.75;;
27822;SDS011;29019;47.630;8.262;2023-06-26T11:40:51;2.70;;;1.55;;
27822;SDS011;29019;47.630;8.262;2023-06-26T11:44:51;2.83;;;1.73;;
27822;SDS011;29019;47.630;8.262;2023-06-26T11:48:53;2.00;;;1.50;;
27822;SDS011;29019;47.630;8.262;2023-06-26T11:56:58;2.10;;;1.63;;
27822;SDS011;29019;47.630;8.262;2023-06-26T12:05:00;2.40;;;1.70;;
27822;SDS011;29019;47.630;8.262;2023-06-26T12:09:01;2.50;;;1.55;;
27822;SDS011;29019;47.630;8.262;2023-06-26T12:13:05;3.05;;;1.92;;
27822;SDS011;29019;47.630;8.262;2023-06-26T12:17:08;1.48;;;1.33;;
27822;SDS011;29019;47.630;8.262;2023-06-26T12:29:52;1.73;;;1.40;;
27822;SDS011;29019;47.630;8.262;2023-06-26T12:37:54;1.83;;;1.53;;
27822;SDS011;29019;47.630;8.262;2023-06-26T12:41:56;2.13;;;1.60;;
27822;SDS011;29019;47.630;8.262;2023-06-26T12:45:58;1.92;;;1.50;;
27822;SDS011;29019;47.630;8.262;2023-06-26T12:50:04;2.58;;;1.58;;
27822;SDS011;29019;47.630;8.262;2023-06-26T12:54:05;1.98;;;1.30;;
27822;SDS011;29019;47.630;8.262;2023-06-26T12:58:06;2.35;;;1.67;;
27822;SDS011;29019;47.630;8.262;2023-06-26T13:02:07;1.83;;;1.50;;
27822;SDS011;29019;47.630;8.262;2023-06-26T13:06:08;2.22;;;1.55;;
27822;SDS011;29019;47.630;8.262;2023-06-26T13:10:09;1.88;;;1.50;;
27822;SDS011;29019;47.630;8.262;2023-06-26T13:14:10;1.30;;;1.00;;
27822;SDS011;29019;47.630;8.262;2023-06-26T13:18:10;2.60;;;1.65;;
27822;SDS011;29019;47.630;8.262;2023-06-26T13:22:11;2.55;;;1.40;;
27822;SDS011;29019;47.630;8.262;2023-06-26T13:26:12;1.95;;;1.45;;
27822;SDS011;29019;47.630;8.262;2023-06-26T13:30:13;2.13;;;1.60;;
27822;SDS011;29019;47.630;8.262;2023-06-26T13:34:21;1.48;;;1.33;;
27822;SDS011;29019;47.630;8.262;2023-06-26T13:38:23;2.03;;;1.60;;
27822;SDS011;29019;47.630;8.262;2023-06-26T13:42:24;1.77;;;1.40;;
27822;SDS011;29019;47.630;8.262;2023-06-26T13:46:25;2.33;;;1.33;;
27822;SDS011;29019;47.630;8.262;2023-06-26T13:50:28;2.25;;;1.50;;
27822;SDS011;29019;47.630;8.262;2023-06-26T13:54:29;2.42;;;1.80;;
27822;SDS011;29019;47.630;8.262;2023-06-26T13:58:30;1.67;;;1.50;;
27822;SDS011;29019;47.630;8.262;2023-06-26T14:02:32;1.60;;;1.50;;
27822;SDS011;29019;47.630;8.262;2023-06-26T14:06:33;2.50;;;2.08;;
27822;SDS011;29019;47.630;8.262;2023-06-26T14:10:34;1.75;;;1.52;;
27822;SDS011;29019;47.630;8.262;2023-06-26T14:14:36;1.33;;;1.20;;
27822;SDS011;29019;47.630;8.262;2023-06-26T14:18:37;1.92;;;1.63;;
27822;SDS011;29019;47.630;8.262;2023-06-26T14:22:38;1.33;;;1.10;;
27822;SDS011;29019;47.630;8.262;2023-06-26T14:26:39;2.13;;;1.60;;
27822;SDS011;29019;47.630;8.262;2023-06-26T14:30:40;1.50;;;1.08;;
27822;SDS011;29019;47.630;8.262;2023-06-26T14:34:41;1.48;;;1.38;;
27822;SDS011;29019;47.630;8.262;2023-06-26T14:38:41;2.28;;;1.63;;
27822;SDS011;29019;47.630;8.262;2023-06-26T14:42:42;1.45;;;1.10;;
27822;SDS011;29019;47.630;8.262;2023-06-26T14:46:43;1.48;;;1.20;;
27822;SDS011;29019;47.630;8.262;2023-06-26T14:50:43;1.20;;;1.05;;
27822;SDS011;29019;47.630;8.262;2023-06-26T14:54:44;1.80;;;1.40;;
27822;SDS011;29019;47.630;8.262;2023-06-26T14:58:44;1.45;;;1.13;;
27822;SDS011;29019;47.630;8.262;2023-06-26T15:02:47;1.63;;;1.42;;
27822;SDS011;29019;47.630;8.262;2023-06-26T15:06:48;2.17;;;1.35;;
27822;SDS011;29019;47.630;8.262;2023-06-26T15:10:49;1.63;;;1.38;;
27822;SDS011;29019;47.630;8.262;2023-06-26T15:18:52;2.03;;;1.48;;
27822;SDS011;29019;47.630;8.262;2023-06-26T15:22:53;1.00;;;0.90;;
27822;SDS011;29019;47.630;8.262;2023-06-26T15:26:54;2.22;;;1.50;;
27822;SDS011;29019;47.630;8.262;2023-06-26T15:30:55;1.77;;;1.20;;
27822;SDS011;29019;47.630;8.262;2023-06-26T15:34:55;2.33;;;1.40;;
27822;SDS011;29019;47.630;8.262;2023-06-26T15:38:56;1.83;;;1.60;;
27822;SDS011;29019;47.630;8.262;2023-06-26T15:42:57;1.38;;;1.27;;
27822;SDS011;29019;47.630;8.262;2023-06-26T15:46:58;2.25;;;1.50;;
27822;SDS011;29019;47.630;8.262;2023-06-26T15:50:59;1.95;;;1.40;;
27822;SDS011;29019;47.630;8.262;2023-06-26T15:55:00;1.67;;;1.50;;
27822;SDS011;29019;47.630;8.262;2023-06-26T15:59:00;1.08;;;0.95;;
27822;SDS011;29019;47.630;8.262;2023-06-26T16:03:01;1.35;;;1.25;;
27822;SDS011;29019;47.630;8.262;2023-06-26T16:07:02;1.33;;;1.20;;
27822;SDS011;29019;47.630;8.262;2023-06-26T16:11:03;1.98;;;1.15;;
27822;SDS011;29019;47.630;8.262;2023-06-26T16:15:05;1.58;;;1.20;;
27822;SDS011;29019;47.630;8.262;2023-06-26T16:23:07;1.30;;;1.17;;
27822;SDS011;29019;47.630;8.262;2023-06-26T16:27:08;1.20;;;1.10;;
27822;SDS011;29019;47.630;8.262;2023-06-26T16:31:09;1.50;;;1.20;;
27822;SDS011;29019;47.630;8.262;2023-06-26T16:35:09;1.40;;;0.98;;
27822;SDS011;29019;47.630;8.262;2023-06-26T16:39:10;1.48;;;1.25;;
27822;SDS011;29019;47.630;8.262;2023-06-26T16:43:15;1.67;;;1.48;;
27822;SDS011;29019;47.630;8.262;2023-06-26T16:47:17;1.70;;;1.45;;
27822;SDS011;29019;47.630;8.262;2023-06-26T16:51:18;1.92;;;1.40;;
27822;SDS011;29019;47.630;8.262;2023-06-26T16:55:19;1.23;;;1.13;;
27822;SDS011;29019;47.630;8.262;2023-06-26T17:03:21;1.90;;;1.60;;
27822;SDS011;29019;47.630;8.262;2023-06-26T17:07:21;1.73;;;1.50;;
27822;SDS011;29019;47.630;8.262;2023-06-26T17:11:22;1.15;;;0.95;;
27822;SDS011;29019;47.630;8.262;2023-06-26T17:15:23;1.63;;;1.38;;
27822;SDS011;29019;47.630;8.262;2023-06-26T17:19:23;1.30;;;1.20;;
27822;SDS011;29019;47.630;8.262;2023-06-26T17:23:24;1.02;;;0.93;;
27822;SDS011;29019;47.630;8.262;2023-06-26T17:27:25;1.50;;;1.17;;
27822;SDS011;29019;47.630;8.262;2023-06-26T17:31:27;1.17;;;1.08;;
27822;SDS011;29019;47.630;8.262;2023-06-26T17:35:31;1.50;;;1.25;;
27822;SDS011;29019;47.630;8.262;2023-06-26T17:39:32;1.75;;;1.30;;
27822;SDS011;29019;47.630;8.262;2023-06-26T17:47:34;1.60;;;1.25;;
27822;SDS011;29019;47.630;8.262;2023-06-26T17:51:35;1.40;;;1.10;;
27822;SDS011;29019;47.630;8.262;2023-06-26T17:55:35;1.27;;;1.02;;
27822;SDS011;29019;47.630;8.262;2023-06-26T18:03:37;1.40;;;1.23;;
27822;SDS011;29019;47.630;8.262;2023-06-26T18:07:37;1.38;;;1.27;;
27822;SDS011;29019;47.630;8.262;2023-06-26T18:11:39;1.65;;;1.30;;
27822;SDS011;29019;47.630;8.262;2023-06-26T18:15:39;1.75;;;1.40;;
27822;SDS011;29019;47.630;8.262;2023-06-26T18:23:41;2.13;;;1.50;;
27822;SDS011;29019;47.630;8.262;2023-06-26T18:27:42;1.42;;;1.20;;
27822;SDS011;29019;47.630;8.262;2023-06-26T18:31:42;1.48;;;1.20;;
27822;SDS011;29019;47.630;8.262;2023-06-26T18:35:43;1.50;;;1.20;;
27822;SDS011;29019;47.630;8.262;2023-06-26T18:39:45;1.73;;;1.10;;
27822;SDS011;29019;47.630;8.262;2023-06-26T18:43:45;1.23;;;1.10;;
27822;SDS011;29019;47.630;8.262;2023-06-26T18:47:48;1.20;;;1.10;;
27822;SDS011;29019;47.630;8.262;2023-06-26T18:51:50;1.13;;;1.02;;
27822;SDS011;29019;47.630;8.262;2023-06-26T18:55:51;1.52;;;1.30;;
27822;SDS011;29019;47.630;8.262;2023-06-26T18:59:51;1.30;;;1.13;;
27822;SDS011;29019;47.630;8.262;2023-06-26T19:03:52;1.27;;;1.10;;
27822;SDS011;29019;47.630;8.262;2023-06-26T19:07:53;1.27;;;1.17;;
27822;SDS011;29019;47.630;8.262;2023-06-26T19:11:53;1.20;;;1.10;;
27822;SDS011;29019;47.630;8.262;2023-06-26T19:15:54;1.27;;;1.17;;
27822;SDS011;29019;47.630;8.262;2023-06-26T19:19:55;1.20;;;1.10;;
27822;SDS011;29019;47.630;8.262;2023-06-26T19:23:55;1.20;;;1.08;;
27822;SDS011;29019;47.630;8.262;2023-06-26T19:27:56;1.13;;;1.00;;
27822;SDS011;29019;47.630;8.262;2023-06-26T19:31:57;1.20;;;1.02;;
27822;SDS011;29019;47.630;8.262;2023-06-26T19:36:00;2.15;;;1.52;;
27822;SDS011;29019;47.630;8.262;2023-06-26T19:40:00;1.95;;;1.10;;
27822;SDS011;29019;47.630;8.262;2023-06-26T19:44:01;1.33;;;1.23;;
27822;SDS011;29019;47.630;8.262;2023-06-26T19:48:01;1.90;;;1.08;;
27822;SDS011;29019;47.630;8.262;2023-06-26T19:52:02;1.42;;;1.33;;
27822;SDS011;29019;47.630;8.262;2023-06-26T20:00:05;1.30;;;1.20;;
27822;SDS011;29019;47.630;8.262;2023-06-26T20:08:06;1.17;;;0.93;;
27822;SDS011;29019;47.630;8.262;2023-06-26T20:12:07;1.10;;;0.93;;
27822;SDS011;29019;47.630;8.262;2023-06-26T20:16:08;1.42;;;1.23;;
27822;SDS011;29019;47.630;8.262;2023-06-26T20:20:08;4.97;;;1.42;;
27822;SDS011;29019;47.630;8.262;2023-06-26T20:24:09;0.82;;;0.82;;
27822;SDS011;29019;47.630;8.262;2023-06-26T20:28:10;33.50;;;16.23;;
27822;SDS011;29019;47.630;8.262;2023-06-26T20:32:11;78.40;;;37.20;;
27822;SDS011;29019;47.630;8.262;2023-06-26T20:36:11;76.40;;;38.22;;
27822;SDS011;29019;47.630;8.262;2023-06-26T20:40:12;97.15;;;47.72;;
27822;SDS011;29019;47.630;8.262;2023-06-26T20:44:13;57.28;;;29.25;;
27822;SDS011;29019;47.630;8.262;2023-06-26T20:48:14;62.72;;;28.35;;
27822;SDS011;29019;47.630;8.262;2023-06-26T20:52:16;49.75;;;24.25;;
27822;SDS011;29019;47.630;8.262;2023-06-26T20:56:18;49.85;;;22.80;;
27822;SDS011;29019;47.630;8.262;2023-06-26T21:00:20;37.67;;;19.48;;
27822;SDS011;29019;47.630;8.262;2023-06-26T21:04:22;33.45;;;17.75;;
27822;SDS011;29019;47.630;8.262;2023-06-26T21:08:23;35.67;;;17.52;;
27822;SDS011;29019;47.630;8.262;2023-06-26T21:16:24;30.87;;;13.53;;
27822;SDS011;29019;47.630;8.262;2023-06-26T21:20:24;30.00;;;13.77;;
27822;SDS011;29019;47.630;8.262;2023-06-26T21:24:25;30.58;;;13.65;;
27822;SDS011;29019;47.630;8.262;2023-06-26T21:28:27;23.83;;;11.73;;
27822;SDS011;29019;47.630;8.262;2023-06-26T21:32:28;25.02;;;10.73;;
27822;SDS011;29019;47.630;8.262;2023-06-26T21:36:29;23.70;;;10.57;;
27822;SDS011;29019;47.630;8.262;2023-06-26T21:40:29;20.65;;;9.13;;
27822;SDS011;29019;47.630;8.262;2023-06-26T21:48:34;22.37;;;9.13;;
27822;SDS011;29019;47.630;8.262;2023-06-26T21:52:35;20.80;;;8.25;;
27822;SDS011;29019;47.630;8.262;2023-06-26T21:56:36;18.38;;;6.72;;
27822;SDS011;29019;47.630;8.262;2023-06-26T22:00:37;12.07;;;7.00;;
27822;SDS011;29019;47.630;8.262;2023-06-26T22:04:37;13.90;;;7.03;;
27822;SDS011;29019;47.630;8.262;2023-06-26T22:08:38;15.70;;;7.50;;
27822;SDS011;29019;47.630;8.262;2023-06-26T22:12:39;18.52;;;7.07;;
27822;SDS011;29019;47.630;8.262;2023-06-26T22:16:41;14.18;;;6.68;;
27822;SDS011;29019;47.630;8.262;2023-06-26T22:20:41;11.50;;;5.85;;
27822;SDS011;29019;47.630;8.262;2023-06-26T22:28:42;13.00;;;5.37;;
27822;SDS011;29019;47.630;8.262;2023-06-26T22:32:43;11.32;;;5.20;;
27822;SDS011;29019;47.630;8.262;2023-06-26T22:36:45;12.70;;;5.65;;
27822;SDS011;29019;47.630;8.262;2023-06-26T22:40:46;9.18;;;4.95;;
27822;SDS011;29019;47.630;8.262;2023-06-26T22:44:47;10.75;;;4.70;;
27822;SDS011;29019;47.630;8.262;2023-06-26T22:48:47;13.80;;;4.60;;
27822;SDS011;29019;47.630;8.262;2023-06-26T22:52:48;9.48;;;4.78;;
27822;SDS011;29019;47.630;8.262;2023-06-26T22:56:48;7.75;;;4.78;;
27822;SDS011;29019;47.630;8.262;2023-06-26T23:04:50;13.40;;;5.10;;
27822;SDS011;29019;47.630;8.262;2023-06-26T23:08:50;9.18;;;4.35;;
27822;SDS011;29019;47.630;8.262;2023-06-26T23:12:51;10.75;;;4.53;;
27822;SDS011;29019;47.630;8.262;2023-06-26T23:16:54;9.90;;;4.85;;
27822;SDS011;29019;47.630;8.262;2023-06-26T23:21:04;10.85;;;4.18;;
27822;SDS011;29019;47.630;8.262;2023-06-26T23:25:04;8.52;;;3.97;;
27822;SDS011;29019;47.630;8.262;2023-06-26T23:33:06;8.50;;;4.70;;
27822;SDS011;29019;47.630;8.262;2023-06-26T23:45:09;8.05;;;3.88;;
27822;SDS011;29019;47.630;8.262;2023-06-26T23:49:10;9.50;;;3.67;;
27822;SDS011;29019;47.630;8.262;2023-06-26T23:53:11;8.88;;;3.70;;
27822;SDS011;29019;47.630;8.262;2023-06-26T23:57:11;9.38;;;4.53;;
